createdAt,value
2023-01-19T00:01:52.177Z,17.17
2023-01-19T00:04:21.441Z,23.10
2023-01-19T00:06:50.508Z,28.52
2023-01-19T00:09:26.835Z,23.50
2023-01-19T00:11:56.008Z,21.75
2023-01-19T00:14:25.239Z,26.33
2023-01-19T00:17:07.813Z,27.90
2023-01-19T00:19:37.082Z,22.63
2023-01-19T00:22:07.146Z,24.55
2023-01-19T00:24:37.790Z,26.35
2023-01-19T00:27:13.284Z,23.38
2023-01-19T00:29:42.561Z,23.67
2023-01-19T00:32:13.656Z,22.42
2023-01-19T00:34:49.170Z,25.45
2023-01-19T00:37:18.375Z,22.75
2023-01-19T00:39:47.442Z,25.23
2023-01-19T00:42:34.801Z,25.60
2023-01-19T00:45:04.190Z,26.00
2023-01-19T00:47:35.280Z,25.70
2023-01-19T00:52:51.495Z,22.58
2023-01-19T00:55:28.149Z,24.42
2023-01-19T00:57:57.981Z,24.67
2023-01-19T01:00:27.676Z,25.63
2023-01-19T01:02:59.373Z,25.58
2023-01-19T01:07:57.606Z,27.52
2023-01-19T01:10:30.023Z,23.40
2023-01-19T01:12:59.266Z,19.85
2023-01-19T01:15:29.529Z,25.73
2023-01-19T01:18:00.660Z,23.80
2023-01-19T01:20:30.694Z,20.40
2023-01-19T01:23:00.346Z,21.40
2023-01-19T01:25:37.337Z,23.67
2023-01-19T01:28:08.633Z,23.33
2023-01-19T01:30:43.934Z,23.35
2023-01-19T01:33:15.082Z,23.45
2023-01-19T01:36:04.515Z,20.95
2023-01-19T01:38:33.811Z,24.75
2023-01-19T01:41:10.470Z,25.27
2023-01-19T01:43:47.900Z,20.88
2023-01-19T01:46:19.899Z,23.40
2023-01-19T01:51:42.199Z,23.23
2023-01-19T01:54:20.366Z,23.92
2023-01-19T01:56:51.780Z,23.25
2023-01-19T01:59:34.277Z,27.02
2023-01-19T02:02:21.640Z,22.05
2023-01-19T02:04:55.738Z,24.10
2023-01-19T02:07:49.665Z,20.95
2023-01-19T02:10:35.057Z,24.38
2023-01-19T02:13:23.871Z,26.40
2023-01-19T02:15:55.100Z,22.42
2023-01-19T02:18:27.303Z,27.30
2023-01-19T02:21:05.600Z,22.33
2023-01-19T02:23:48.938Z,23.15
2023-01-19T02:26:20.813Z,25.38
2023-01-19T02:31:21.858Z,23.02
2023-01-19T02:33:51.365Z,26.30
2023-01-19T02:36:25.380Z,22.73
2023-01-19T02:38:58.957Z,20.23
2023-01-19T02:44:23.403Z,24.75
2023-01-19T02:46:55.547Z,25.75
2023-01-19T02:51:53.478Z,22.48
2023-01-19T02:54:50.201Z,23.50
2023-01-19T02:57:52.571Z,25.23
2023-01-19T03:03:17.360Z,25.98
2023-01-19T03:06:01.236Z,26.95
2023-01-19T03:08:45.133Z,22.08
2023-01-19T03:11:22.363Z,23.67
2023-01-19T03:14:00.898Z,21.15
2023-01-19T03:16:43.384Z,20.23
2023-01-19T03:19:19.748Z,23.15
2023-01-19T03:21:52.747Z,23.02
2023-01-19T03:24:30.339Z,20.15
2023-01-19T03:27:06.191Z,22.27
2023-01-19T03:29:43.198Z,23.42
2023-01-19T03:34:57.238Z,18.67
2023-01-19T03:37:33.754Z,19.65
2023-01-19T03:40:02.979Z,22.30
2023-01-19T03:42:35.552Z,23.80
2023-01-19T03:45:05.962Z,19.33
2023-01-19T03:47:41.635Z,21.35
2023-01-19T03:50:16.911Z,22.17
2023-01-19T03:52:46.225Z,19.33
2023-01-19T03:55:15.326Z,20.55
2023-01-19T03:57:46.370Z,19.38
2023-01-19T04:00:17.351Z,21.00
2023-01-19T04:02:52.287Z,26.20
2023-01-19T04:05:21.933Z,19.15
2023-01-19T04:07:51.466Z,21.25
2023-01-19T04:10:21.649Z,21.20
2023-01-19T04:13:00.030Z,26.38
2023-01-19T04:15:29.693Z,22.80
2023-01-19T04:17:59.791Z,18.98
2023-01-19T04:20:29.156Z,19.23
2023-01-19T04:25:37.966Z,18.35
2023-01-19T04:28:09.952Z,18.88
2023-01-19T04:30:44.246Z,18.23
2023-01-19T04:33:13.439Z,17.20
2023-01-19T04:35:42.503Z,20.83
2023-01-19T04:40:45.901Z,19.00
2023-01-19T04:43:16.985Z,18.40
2023-01-19T04:45:47.357Z,21.85
2023-01-19T04:48:18.181Z,18.77
2023-01-19T04:50:47.433Z,18.13
2023-01-19T04:53:17.971Z,17.08
2023-01-19T04:55:47.322Z,21.65
2023-01-19T04:58:18.366Z,21.55
2023-01-19T05:00:52.766Z,21.17
2023-01-19T05:03:22.110Z,19.20
2023-01-19T05:05:51.331Z,20.83
2023-01-19T05:08:26.068Z,21.63
2023-01-19T05:10:57.089Z,18.77
2023-01-19T05:13:28.545Z,16.98
2023-01-19T05:15:58.684Z,19.42
2023-01-19T05:18:27.829Z,15.10
2023-01-19T05:20:56.944Z,22.15
2023-01-19T05:23:26.049Z,17.80
2023-01-19T05:25:56.507Z,18.63
2023-01-19T05:28:27.613Z,19.77
2023-01-19T05:30:57.119Z,20.63
2023-01-19T05:33:27.266Z,17.48
2023-01-19T05:35:58.428Z,18.95
2023-01-19T05:38:35.449Z,19.10
2023-01-19T05:41:05.928Z,21.13
2023-01-19T05:43:37.069Z,21.05
2023-01-19T05:46:12.603Z,22.10
2023-01-19T05:48:41.846Z,20.17
2023-01-19T05:51:11.006Z,20.75
2023-01-19T05:53:40.243Z,18.33
2023-01-19T05:56:16.279Z,21.70
2023-01-19T05:58:47.636Z,21.70
2023-01-19T06:01:16.823Z,18.33
2023-01-19T06:03:48.303Z,20.05
2023-01-19T06:06:18.375Z,17.73
2023-01-19T06:08:47.993Z,22.05
2023-01-19T06:11:22.218Z,20.88
2023-01-19T06:13:53.270Z,22.90
2023-01-19T06:16:22.612Z,16.08
2023-01-19T06:18:52.249Z,22.48
2023-01-19T06:21:21.586Z,22.58
2023-01-19T06:23:55.737Z,22.60
2023-01-19T06:26:25.816Z,21.75
2023-01-19T06:28:57.099Z,26.05
2023-01-19T06:31:27.738Z,23.33
2023-01-19T06:33:56.968Z,22.67
2023-01-19T06:36:26.106Z,22.75
2023-01-19T06:38:55.256Z,20.40
2023-01-19T06:41:24.571Z,20.90
2023-01-19T06:43:53.698Z,23.15
2023-01-19T06:46:25.670Z,22.10
2023-01-19T06:54:01.274Z,22.23
2023-01-19T06:56:30.627Z,24.15
2023-01-19T06:59:00.240Z,23.63
2023-01-19T07:01:36.439Z,27.23
2023-01-19T07:04:05.922Z,25.90
2023-01-19T07:06:34.956Z,25.95
2023-01-19T07:09:07.541Z,24.15
2023-01-19T07:11:36.761Z,23.83
2023-01-19T07:14:05.965Z,24.92
2023-01-19T07:16:43.907Z,23.15
2023-01-19T07:19:13.839Z,23.67
2023-01-19T07:21:42.881Z,28.45
2023-01-19T07:24:12.101Z,22.80
2023-01-19T07:26:42.028Z,24.42
2023-01-19T07:29:11.766Z,22.92
2023-01-19T07:31:44.732Z,22.05
2023-01-19T07:34:13.932Z,25.42
2023-01-19T07:36:43.671Z,20.52
2023-01-19T07:39:12.816Z,29.08
2023-01-19T07:41:41.956Z,24.38
2023-01-19T07:44:21.570Z,26.52
2023-01-19T07:46:53.829Z,23.60
2023-01-19T07:49:23.364Z,24.67
2023-01-19T07:51:59.785Z,29.80
2023-01-19T07:54:29.191Z,26.75
2023-01-19T07:57:00.225Z,27.13
2023-01-19T07:59:31.507Z,29.08
2023-01-19T08:02:02.675Z,27.00
2023-01-19T08:04:32.040Z,23.40
2023-01-19T08:07:01.260Z,28.85
2023-01-19T08:09:30.372Z,33.05
2023-01-19T08:11:59.589Z,27.33
2023-01-19T08:14:28.806Z,27.85
2023-01-19T08:17:03.516Z,26.02
2023-01-19T08:19:32.837Z,29.45
2023-01-19T08:22:02.025Z,24.52
2023-01-19T08:24:31.587Z,29.88
2023-01-19T08:27:01.279Z,28.65
2023-01-19T08:29:31.517Z,27.80
2023-01-19T08:32:02.812Z,30.77
2023-01-19T08:34:32.770Z,26.92
2023-01-19T08:37:02.063Z,30.13
2023-01-19T08:39:31.321Z,36.75
2023-01-19T08:42:00.584Z,29.42
2023-01-19T08:44:29.874Z,26.92
2023-01-19T08:46:59.569Z,26.80
2023-01-19T08:49:30.851Z,27.23
2023-01-19T08:52:00.112Z,28.70
2023-01-19T08:54:29.246Z,28.25
2023-01-19T08:57:03.637Z,27.85
2023-01-19T08:59:32.951Z,30.60
2023-01-19T09:02:02.087Z,28.98
2023-01-19T09:04:34.210Z,27.50
2023-01-19T09:07:03.437Z,27.95
2023-01-19T09:09:33.071Z,30.27
2023-01-19T09:12:07.262Z,28.38
2023-01-19T09:14:36.461Z,29.67
2023-01-19T09:17:05.935Z,28.83
2023-01-19T09:19:37.107Z,27.58
2023-01-19T09:22:07.445Z,29.50
2023-01-19T09:24:41.595Z,29.00
2023-01-19T09:27:10.826Z,31.23
2023-01-19T09:29:40.036Z,33.45
2023-01-19T09:32:21.255Z,26.42
2023-01-19T09:34:53.575Z,31.10
2023-01-19T09:37:22.843Z,28.33
2023-01-19T09:39:51.902Z,32.60
2023-01-19T09:42:34.055Z,30.35
2023-01-19T09:45:16.418Z,33.80
2023-01-19T09:50:31.586Z,28.73
2023-01-19T09:53:13.622Z,32.63
2023-01-19T09:55:44.332Z,32.20
2023-01-19T09:58:18.276Z,34.95
2023-01-19T10:00:53.628Z,34.28
2023-01-19T10:03:24.129Z,33.45
2023-01-19T10:06:00.678Z,37.58
2023-01-19T10:08:41.477Z,30.90
2023-01-19T10:11:26.309Z,37.03
2023-01-19T10:14:05.724Z,33.38
2023-01-19T10:16:44.893Z,34.90
2023-01-19T10:19:24.418Z,33.72
2023-01-19T10:21:59.493Z,30.92
2023-01-19T10:27:17.959Z,27.23
2023-01-19T10:29:48.563Z,31.40
2023-01-19T10:32:20.774Z,31.60
2023-01-19T10:34:51.065Z,32.08
2023-01-19T10:37:33.544Z,35.13
2023-01-19T10:40:16.667Z,31.13
2023-01-19T10:42:58.123Z,30.75
2023-01-19T10:45:30.469Z,33.58
2023-01-19T10:48:06.776Z,34.65
2023-01-19T10:53:25.291Z,38.15
2023-01-19T10:56:17.356Z,34.17
2023-01-19T10:58:46.660Z,35.65
2023-01-19T11:04:04.444Z,38.03
2023-01-19T11:06:35.403Z,33.40
2023-01-19T11:09:21.363Z,38.22
2023-01-19T11:11:54.296Z,34.90
2023-01-19T11:14:25.520Z,33.80
2023-01-19T11:17:01.861Z,34.90
2023-01-19T11:19:33.498Z,33.70
2023-01-19T11:22:31.353Z,36.47
2023-01-19T11:25:04.921Z,29.83
2023-01-19T11:27:43.208Z,35.83
2023-01-19T11:30:21.364Z,35.38
2023-01-19T11:32:55.933Z,31.65
2023-01-19T11:35:37.201Z,34.08
2023-01-19T11:38:22.811Z,36.03
2023-01-19T11:41:00.255Z,30.70
2023-01-19T11:43:48.317Z,33.70
2023-01-19T11:46:19.427Z,35.65
2023-01-19T11:48:57.638Z,36.40
2023-01-19T11:51:33.164Z,36.67
2023-01-19T11:54:15.123Z,36.47
2023-01-19T11:56:49.989Z,38.65
2023-01-19T11:59:19.962Z,38.75
2023-01-19T12:01:55.205Z,40.78
2023-01-19T12:04:31.585Z,33.20
2023-01-19T12:07:08.491Z,38.85
2023-01-19T12:09:43.575Z,34.40
2023-01-19T12:12:30.459Z,37.13
2023-01-19T12:15:15.784Z,34.47
2023-01-19T12:17:49.970Z,36.33
2023-01-19T12:20:40.948Z,37.60
2023-01-19T12:23:28.757Z,31.17
2023-01-19T12:26:16.496Z,37.35
2023-01-19T12:28:50.283Z,38.08
2023-01-19T12:31:26.749Z,39.20
2023-01-19T12:33:56.196Z,36.65
2023-01-19T12:36:40.779Z,38.70
2023-01-19T12:39:23.408Z,36.85
2023-01-19T12:42:07.433Z,34.47
2023-01-19T12:44:38.729Z,34.72
2023-01-19T12:54:22.590Z,32.90
2023-01-19T12:56:59.410Z,42.25
2023-01-19T12:59:37.294Z,35.15
2023-01-19T13:02:48.112Z,33.33
2023-01-19T13:05:21.230Z,43.00
2023-01-19T13:08:21.274Z,40.53
2023-01-19T13:11:32.637Z,39.13
2023-01-19T13:14:39.065Z,37.72
2023-01-19T13:17:30.486Z,38.20
2023-01-19T13:20:07.868Z,40.47
2023-01-19T13:23:18.540Z,35.60
2023-01-19T13:26:06.280Z,39.95
2023-01-19T13:28:46.463Z,38.40
2023-01-19T13:31:16.704Z,34.95
2023-01-19T13:33:51.531Z,39.15
2023-01-19T13:36:37.862Z,35.88
2023-01-19T13:39:17.107Z,35.42
2023-01-19T13:41:49.223Z,37.80
2023-01-19T13:44:28.453Z,42.00
2023-01-19T13:47:06.584Z,48.67
2023-01-19T13:49:40.567Z,53.88
2023-01-19T13:52:14.845Z,42.00
2023-01-19T13:54:56.925Z,37.85
2023-01-19T14:00:19.382Z,43.42
2023-01-19T14:02:59.301Z,42.30
2023-01-19T14:05:31.437Z,41.25
2023-01-19T14:10:38.480Z,36.20
2023-01-19T14:13:17.051Z,36.72
2023-01-19T14:15:50.455Z,38.40
2023-01-19T14:18:29.759Z,39.88
2023-01-19T14:21:03.136Z,37.10
2023-01-19T14:23:46.672Z,37.42
2023-01-19T14:26:45.657Z,36.25
2023-01-19T14:29:29.283Z,37.50
2023-01-19T14:32:21.256Z,39.80
2023-01-19T14:34:52.359Z,32.15
2023-01-19T14:37:30.458Z,32.10
2023-01-19T14:40:04.291Z,39.17
2023-01-19T14:42:36.863Z,32.53
2023-01-19T14:45:11.937Z,32.75
2023-01-19T14:47:45.732Z,28.90
2023-01-19T14:50:25.609Z,30.80
2023-01-19T14:53:03.885Z,28.65
2023-01-19T14:55:42.033Z,30.75
2023-01-19T14:58:18.706Z,32.03
2023-01-19T15:00:49.248Z,27.40
2023-01-19T15:03:20.587Z,29.42
2023-01-19T15:11:13.508Z,31.70
2023-01-19T15:13:52.165Z,29.90
2023-01-19T15:16:22.168Z,30.23
2023-01-19T15:18:55.237Z,34.88
2023-01-19T15:21:26.222Z,34.55
2023-01-19T15:24:03.238Z,32.53
2023-01-19T15:26:41.175Z,34.35
2023-01-19T15:29:24.786Z,31.25
2023-01-19T15:31:54.736Z,31.23
2023-01-19T15:37:01.281Z,32.30
2023-01-19T15:39:30.444Z,34.67
2023-01-19T15:49:44.878Z,28.15
2023-01-19T15:52:19.220Z,28.95
2023-01-19T15:54:48.525Z,31.00
2023-01-19T15:57:19.119Z,32.90
2023-01-19T15:59:54.741Z,31.33
2023-01-19T16:02:23.839Z,32.97
2023-01-19T16:07:32.521Z,29.88
2023-01-19T16:10:01.756Z,35.17
2023-01-19T16:12:38.012Z,32.30
2023-01-19T16:15:15.929Z,31.25
2023-01-19T16:17:45.621Z,33.40
2023-01-19T16:20:39.043Z,32.50
2023-01-19T16:23:15.978Z,28.63
2023-01-19T16:28:25.218Z,29.48
2023-01-19T16:30:54.988Z,36.00
2023-01-19T16:33:25.791Z,30.45
2023-01-19T16:35:57.195Z,34.45
2023-01-19T16:38:26.537Z,38.83
2023-01-19T16:40:56.785Z,40.15
2023-01-19T16:43:28.374Z,40.25
2023-01-19T16:46:02.860Z,37.97
2023-01-19T16:48:32.565Z,41.05
2023-01-19T16:51:06.537Z,38.83
2023-01-19T16:56:22.161Z,43.13
2023-01-19T16:58:56.806Z,45.17
2023-01-19T17:01:32.218Z,44.13
2023-01-19T17:04:04.281Z,43.33
2023-01-19T17:06:40.657Z,39.33
2023-01-19T17:09:31.635Z,43.75
2023-01-19T17:12:09.353Z,54.60
2023-01-19T17:14:38.651Z,48.22
2023-01-19T17:17:09.006Z,45.38
2023-01-19T17:19:38.401Z,49.20
2023-01-19T17:22:09.459Z,45.25
2023-01-19T17:24:42.026Z,42.15
2023-01-19T17:27:19.475Z,48.70
2023-01-19T17:29:50.461Z,44.17
2023-01-19T17:32:21.714Z,38.43
2023-01-19T17:34:51.202Z,44.42
2023-01-19T17:37:22.818Z,43.53
2023-01-19T17:39:52.171Z,38.88
2023-01-19T17:42:21.322Z,48.50
2023-01-19T17:44:50.642Z,48.67
2023-01-19T17:47:25.060Z,48.22
2023-01-19T17:49:55.200Z,49.13
2023-01-19T17:52:26.518Z,44.50
2023-01-19T17:55:08.906Z,50.75
2023-01-19T17:57:49.105Z,50.40
2023-01-19T18:00:19.720Z,49.80
2023-01-19T18:02:51.539Z,51.67
2023-01-19T18:05:21.599Z,54.58
2023-01-19T18:07:54.002Z,48.28
2023-01-19T18:10:23.408Z,53.92
2023-01-19T18:12:52.567Z,54.03
2023-01-19T18:15:21.782Z,53.22
2023-01-19T18:18:03.734Z,54.13
2023-01-19T18:23:08.674Z,56.75
2023-01-19T18:25:47.742Z,58.80
2023-01-19T18:28:22.034Z,53.33
2023-01-19T18:30:52.841Z,57.85
2023-01-19T18:33:22.050Z,53.40
2023-01-19T18:35:51.782Z,54.17
2023-01-19T18:38:23.296Z,42.72
2023-01-19T18:41:02.236Z,48.30
2023-01-19T18:43:34.300Z,56.25
2023-01-19T18:48:32.976Z,51.70
2023-01-19T18:51:09.990Z,63.55
2023-01-19T18:53:41.539Z,62.83
2023-01-19T18:56:17.311Z,61.88
2023-01-19T18:58:46.998Z,57.00
2023-01-19T19:01:21.837Z,65.32
2023-01-19T19:03:51.685Z,59.25
2023-01-19T19:06:26.526Z,56.78
2023-01-19T19:08:59.702Z,60.58
2023-01-19T19:11:29.579Z,52.72
2023-01-19T19:14:00.408Z,57.63
2023-01-19T19:16:30.361Z,53.70
2023-01-19T19:19:01.210Z,53.85
2023-01-19T19:21:30.554Z,60.30
2023-01-19T19:26:37.358Z,58.88
2023-01-19T19:29:06.416Z,56.42
2023-01-19T19:31:40.614Z,53.13
2023-01-19T19:34:11.951Z,57.50
2023-01-19T19:36:44.837Z,53.00
2023-01-19T19:39:16.272Z,54.15
2023-01-19T19:41:52.208Z,55.33
2023-01-19T19:44:21.452Z,61.33
2023-01-19T19:46:50.757Z,52.65
2023-01-19T19:52:07.443Z,56.95
2023-01-19T19:54:38.951Z,55.63
2023-01-19T19:57:08.112Z,55.88
2023-01-19T19:59:37.350Z,59.40
2023-01-19T20:02:14.043Z,53.42
2023-01-19T20:04:44.844Z,56.90
2023-01-19T20:07:14.852Z,51.97
2023-01-19T20:09:47.199Z,50.23
2023-01-19T20:12:21.732Z,51.45
2023-01-19T20:14:56.484Z,45.20
2023-01-19T20:17:25.929Z,47.92
2023-01-19T20:20:01.953Z,51.78
2023-01-19T20:22:37.941Z,48.38
2023-01-19T20:25:15.581Z,48.25
2023-01-19T20:27:45.080Z,53.03
2023-01-19T20:30:14.921Z,56.58
2023-01-19T20:32:47.457Z,50.85
2023-01-19T20:35:16.874Z,54.95
2023-01-19T20:37:46.092Z,59.28
2023-01-19T20:40:32.107Z,55.08
2023-01-19T20:43:03.756Z,56.55
2023-01-19T20:45:33.043Z,55.25
2023-01-19T20:48:02.341Z,61.45
2023-01-19T20:50:31.504Z,58.90
2023-01-19T20:53:00.624Z,54.85
2023-01-19T20:55:34.581Z,61.28
2023-01-19T20:58:04.027Z,61.53
2023-01-19T21:00:40.296Z,53.13
2023-01-19T21:03:14.592Z,56.17
2023-01-19T21:05:43.845Z,56.42
2023-01-19T21:08:35.186Z,54.05
2023-01-19T21:11:13.409Z,57.27
2023-01-19T21:16:43.557Z,53.58
2023-01-19T21:19:17.598Z,50.78
2023-01-19T21:21:48.757Z,54.97
2023-01-19T21:24:19.494Z,49.00
2023-01-19T21:26:50.583Z,45.40
2023-01-19T21:29:20.069Z,51.03
2023-01-19T21:31:49.228Z,49.42
2023-01-19T21:34:18.698Z,45.30
2023-01-19T21:36:47.884Z,46.42
2023-01-19T21:39:17.487Z,50.92
2023-01-19T21:41:51.923Z,50.50
2023-01-19T21:44:23.105Z,45.17
2023-01-19T21:46:52.369Z,47.70
2023-01-19T21:49:22.348Z,45.70
2023-01-19T21:51:52.059Z,48.30
2023-01-19T21:57:02.994Z,49.15
2023-01-19T21:59:34.397Z,45.88
2023-01-19T22:02:05.342Z,47.85
2023-01-19T22:04:40.195Z,44.47
2023-01-19T22:07:14.568Z,46.25
2023-01-19T22:09:43.872Z,46.35
2023-01-19T22:12:12.883Z,46.05
2023-01-19T22:14:44.303Z,44.35
2023-01-19T22:17:14.806Z,47.80
2023-01-19T22:19:44.001Z,47.88
2023-01-19T22:22:14.599Z,50.55
2023-01-19T22:24:46.512Z,49.67
2023-01-19T22:29:46.578Z,42.80
2023-01-19T22:34:55.264Z,47.50
2023-01-19T22:37:26.196Z,44.35
2023-01-19T22:39:55.543Z,42.25
2023-01-19T22:42:24.556Z,45.35
2023-01-19T22:44:56.108Z,45.90
2023-01-19T22:47:25.319Z,44.50
2023-01-19T22:49:54.503Z,46.10
2023-01-19T22:52:23.891Z,46.83
2023-01-19T22:54:55.901Z,41.15
2023-01-19T22:57:25.247Z,42.88
2023-01-19T22:59:58.365Z,47.65
2023-01-19T23:02:27.925Z,43.88
2023-01-19T23:04:59.771Z,45.78
2023-01-19T23:07:34.640Z,42.45
2023-01-19T23:10:06.556Z,43.10
2023-01-19T23:15:07.485Z,41.10
2023-01-19T23:17:44.969Z,43.45
2023-01-19T23:20:14.831Z,39.10
2023-01-19T23:22:43.918Z,39.58
2023-01-19T23:25:18.644Z,37.30
2023-01-19T23:27:47.749Z,40.90
2023-01-19T23:30:19.449Z,41.75
2023-01-19T23:32:49.974Z,40.33
2023-01-19T23:35:24.280Z,37.47
2023-01-19T23:37:53.396Z,42.30
2023-01-19T23:40:22.671Z,34.92
2023-01-19T23:42:51.832Z,37.20
2023-01-19T23:45:23.370Z,40.63
2023-01-19T23:47:57.680Z,39.72
2023-01-19T23:50:30.364Z,36.90
2023-01-19T23:52:59.614Z,34.88
2023-01-19T23:55:29.772Z,37.38
2023-01-19T23:58:01.094Z,38.13
